ADDS METAR Data INFO
IDs: Format: Raw Decoded Include TAF

Data at: 0250 UTC 21 Jan 2018

KBRL 210153Z AUTO 19003KT 9SM OVC027 07/04 A2995 RMK AO2 SLP145 T00670039
KBRL 210053Z AUTO 10003KT 8SM OVC027 06/03 A2994 RMK AO2 SLP143 T00560028
KBRL 202353Z AUTO 09004KT 9SM OVC026 07/03 A2993 RMK AO2 SLP140 T00670033 10089 20067 51010
KBRL 202253Z AUTO 05003KT 9SM OVC025 07/03 A2993 RMK AO2 SLP140 T00670033
KBRL 202153Z AUTO 00000KT 8SM OVC024 08/03 A2991 RMK AO2 SLP132 T00830033
KBRL 202053Z AUTO 00000KT 10SM OVC024 08/04 A2990 RMK AO2 SLP129 T00830039 55012
KBRL 201953Z AUTO 26004KT 10SM OVC019 08/04 A2990 RMK AO2 SLP128 T00830039
KBRL 201853Z AUTO 25007KT 9SM OVC016 08/04 A2991 RMK AO2 SLP132 T00780039
KBRL 201831Z AUTO 26007KT 9SM OVC015 07/03 A2992 RMK AO2 T00720033
KBRL 201753Z AUTO 24007KT 8SM OVC014 07/03 A2994 RMK AO2 SLP141 T00670033 10067 20000 50006
KBRL 201653Z AUTO 23011KT 8SM OVC011 06/03 A2995 RMK AO2 SLP146 T00610028
KBRL 201553Z AUTO 21009KT 9SM OVC010 04/01 A2994 RMK AO2 SLP142 T00440011
KBRL 201522Z AUTO 21008KT 10SM BKN010 03/01 A2993 RMK AO2 T00330006
KBRL 201453Z AUTO 20007KT 10SM CLR 03/00 A2992 RMK AO2 SLP136 T00280000 53015
KBRL 201353Z AUTO 20008KT 10SM CLR 01/M02 A2990 RMK AO2 SLP130 T00061017
KBRL 201253Z AUTO 19005KT 10SM CLR 00/M02 A2988 RMK AO2 SLP124 T00001022
KBRL 201153Z AUTO 20007KT 10SM CLR 01/M02 A2987 RMK AO2 SLP121 T00111022 10028 20006 53005
KBRL 201053Z AUTO 21008KT 10SM CLR 01/M03 A2986 RMK AO2 SLP118 T00111028
KBRL 200953Z AUTO 21008KT 10SM CLR 01/M03 A2986 RMK AO2 SLP115 T00111028
KBRL 200853Z AUTO 21008KT 10SM CLR 02/M03 A2986 RMK AO2 SLP116 T00171028 53011
KBRL 200753Z AUTO 21010KT 10SM CLR 02/M03 A2985 RMK AO2 SLP111 T00221028
KBRL 200653Z AUTO 21010KT 10SM CLR 03/M02 A2983 RMK AO2 SLP107 T00281022
KBRL 200553Z AUTO 21010KT 10SM CLR 03/M03 A2983 RMK AO2 SLP104 T00281028 10061 20028 400721022 51016
KBRL 200453Z AUTO 22011KT 10SM CLR 04/M02 A2982 RMK AO2 SLP102 T00441022
KBRL 200353Z AUTO 22011KT 10SM CLR 04/M03 A2980 RMK AO2 SLP095 T00441028
KBRL 200253Z AUTO 21013KT 10SM CLR 04/M02 A2978 RMK AO2 SLP089 T00441022 53005
KBRL 200153Z AUTO 20015KT 10SM CLR 05/M02 A2976 RMK AO2 SLP084 T00501022
KBRL 200053Z AUTO 20015KT 10SM CLR 06/M03 A2976 RMK AO2 SLP084 T00561028
KBRL 192353Z AUTO 20014KT 10SM CLR 06/M02 A2976 RMK AO2 SLP084 T00561022 10072 20039 56003
KBRL 192253Z AUTO 20012KT 10SM CLR 06/M02 A2976 RMK AO2 SLP085 T00611017
KBRL 192153Z AUTO 20012KT 10SM CLR 07/M02 A2977 RMK AO2 SLP087 T00671022
KBRL 192053Z AUTO 20016G24KT 10SM CLR 07/M02 A2977 RMK AO2 PK WND 20026/1958 SLP087 T00671022 56021
KBRL 191953Z AUTO 20016G25KT 10SM CLR 06/M03 A2978 RMK AO2 SLP089 T00611028
KBRL 191853Z AUTO 20015KT 10SM CLR 05/M03 A2980 RMK AO2 SLP098 T00501033
KBRL 191753Z AUTO 21018G24KT 10SM CLR 04/M04 A2984 RMK AO2 SLP109 T00391044 10039 21022 58023
KBRL 191653Z AUTO 21015KT 10SM CLR 03/M05 A2988 RMK AO2 SLP125 T00281050
KBRL 191553Z AUTO 21018KT 10SM CLR 01/M06 A2990 RMK AO2 SLP130 T00111061
KBRL 191453Z AUTO 20015KT 10SM CLR 00/M07 A2991 RMK AO2 SLP134 T00001067 57005